Time;durP1;ratioP1;P1;durP2;ratioP2;P2;SDS_P1;SDS_P2;PMS_P1;PMS_P2;Temp;Humidity;BMP_temperature;BMP_pressure;BME280_temperature;BME280_humidity;BME280_pressure;Samples;Min_cycle;Max_cycle;Signal;HPM_P1;HPM_P2
2022/11/03 00:01:01;;;;;;;15.07;8.30;;;7.60;99.90;;;;;;5060763;28;20224;-71
2022/11/03 00:03:47;;;;;;;12.80;7.85;;;7.50;99.90;;;;;;5069211;28;20700;-72
2022/11/03 00:06:33;;;;;;;15.07;8.20;;;7.70;99.90;;;;;;5073422;28;20555;-71
2022/11/03 00:09:20;;;;;;;13.40;7.65;;;7.70;99.90;;;;;;5069704;28;21002;-71
2022/11/03 00:12:07;;;;;;;16.80;8.00;;;7.60;99.90;;;;;;5073997;28;20210;-71
2022/11/03 00:14:52;;;;;;;14.03;7.00;;;7.60;99.90;;;;;;5070530;28;20474;-71
2022/11/03 00:17:39;;;;;;;12.25;6.28;;;7.60;99.90;;;;;;5067835;28;20935;-73
2022/11/03 00:20:25;;;;;;;9.17;6.40;;;7.50;99.90;;;;;;5067595;28;20652;-72
2022/11/03 00:23:10;;;;;;;12.15;7.05;;;7.50;99.90;;;;;;5063008;28;20805;-72
2022/11/03 00:26:04;;;;;;;9.07;5.65;;;7.50;99.90;;;;;;5069039;28;20405;-72
2022/11/03 00:28:51;;;;;;;10.83;6.60;;;7.60;99.90;;;;;;5071807;28;20263;-72
2022/11/03 00:31:38;;;;;;;10.07;6.97;;;7.60;99.90;;;;;;5072300;28;21041;-71
2022/11/03 00:34:24;;;;;;;18.30;6.67;;;7.60;99.90;;;;;;5077506;28;20596;-72
2022/11/03 00:37:10;;;;;;;9.73;6.63;;;7.50;99.90;;;;;;5073506;28;20500;-71
2022/11/03 00:39:55;;;;;;;8.27;5.70;;;7.50;99.90;;;;;;5071645;28;20461;-72
2022/11/03 00:42:40;;;;;;;17.67;6.77;;;7.40;99.90;;;;;;5052584;28;20423;-72
2022/11/03 00:45:26;;;;;;;9.37;6.50;;;7.40;99.90;;;;;;5051528;28;20577;-71
2022/11/03 00:48:30;;;;;;;11.83;6.60;;;7.40;99.90;;;;;;5051458;28;20415;-71
2022/11/03 00:51:19;;;;;;;8.73;6.30;;;7.50;99.90;;;;;;5053690;28;20418;-72
2022/11/03 00:54:06;;;;;;;8.87;6.20;;;7.40;99.90;;;;;;5065375;28;20914;-71
2022/11/03 00:56:51;;;;;;;12.20;6.10;;;7.40;99.90;;;;;;5066345;28;21023;-72
2022/11/03 00:59:37;;;;;;;8.50;6.40;;;7.30;99.90;;;;;;5068758;28;20453;-71
2022/11/03 01:02:22;;;;;;;9.70;5.40;;;7.20;99.90;;;;;;5070087;28;20914;-71
2022/11/03 01:08:13;;;;;;;9.00;5.97;;;7.10;99.90;;;;;;5065503;28;20552;-71
2022/11/03 01:14:10;;;;;;;9.73;6.47;;;7.10;99.90;;;;;;5066853;28;20556;-72
2022/11/03 01:16:55;;;;;;;13.03;6.90;;;7.10;99.90;;;;;;5068497;28;20454;-72
2022/11/03 01:19:41;;;;;;;34.00;8.33;;;7.10;99.90;;;;;;5065628;28;20465;-71
2022/11/03 01:22:27;;;;;;;12.17;7.63;;;7.10;99.90;;;;;;5079706;28;20523;-71
2022/11/03 01:25:14;;;;;;;9.43;7.13;;;7.00;99.90;;;;;;5067891;28;20458;-71
2022/11/03 01:27:59;;;;;;;14.77;7.87;;;7.00;99.90;;;;;;5057251;28;20435;-72
2022/11/03 01:30:45;;;;;;;13.33;7.80;;;7.00;99.90;;;;;;5059901;28;20422;-72
2022/11/03 01:33:31;;;;;;;10.90;6.37;;;7.10;99.90;;;;;;5071076;28;20422;-71
2022/11/03 01:36:16;;;;;;;10.23;5.50;;;7.10;99.90;;;;;;5070828;28;20430;-71
2022/11/03 01:39:02;;;;;;;10.80;6.47;;;7.10;99.90;;;;;;5071202;28;20389;-72
2022/11/03 01:41:50;;;;;;;13.20;6.00;;;7.10;99.90;;;;;;5052290;28;20875;-71
2022/11/03 01:44:37;;;;;;;9.97;6.20;;;7.00;99.90;;;;;;5064785;28;20450;-72
2022/11/03 01:47:26;;;;;;;14.03;6.90;;;7.00;99.90;;;;;;5071094;28;20398;-72
2022/11/03 01:50:16;;;;;;;10.40;6.53;;;7.00;99.90;;;;;;5065549;28;20527;-72
2022/11/03 01:53:02;;;;;;;10.47;6.70;;;7.00;99.90;;;;;;5054928;28;20566;-72
2022/11/03 01:55:50;;;;;;;11.30;6.53;;;7.00;99.90;;;;;;5068415;28;20456;-72
2022/11/03 01:58:43;;;;;;;11.30;7.27;;;6.90;99.90;;;;;;5069253;28;20545;-72
2022/11/03 02:01:29;;;;;;;13.20;6.00;;;7.00;99.90;;;;;;5072554;28;20454;-72
2022/11/03 02:04:20;;;;;;;9.97;6.30;;;7.00;99.90;;;;;;5070866;28;20440;-72
2022/11/03 02:07:13;;;;;;;7.40;5.70;;;7.00;99.90;;;;;;5065100;28;20524;-72
2022/11/03 02:10:00;;;;;;;9.07;5.93;;;7.10;99.90;;;;;;5067555;28;20934;-72
2022/11/03 02:12:47;;;;;;;13.20;6.77;;;7.10;99.90;;;;;;5069317;28;20963;-72
2022/11/03 02:15:35;;;;;;;13.07;6.40;;;7.10;99.90;;;;;;5064702;28;20524;-72
2022/11/03 02:18:24;;;;;;;17.50;6.33;;;7.10;99.90;;;;;;5064063;28;20462;-72
2022/11/03 02:21:23;;;;;;;11.00;6.27;;;7.00;99.90;;;;;;5070273;28;20438;-72
2022/11/03 02:24:15;;;;;;;16.27;6.30;;;6.80;99.90;;;;;;5069964;28;20470;-72
2022/11/03 02:27:02;;;;;;;13.60;6.37;;;6.80;99.90;;;;;;5065325;28;20430;-72
2022/11/03 02:29:48;;;;;;;8.50;6.00;;;6.80;99.90;;;;;;5065783;28;20447;-72
2022/11/03 02:32:40;;;;;;;9.90;6.20;;;6.90;99.90;;;;;;5074143;28;20430;-72
2022/11/03 02:35:31;;;;;;;12.07;5.93;;;6.90;99.90;;;;;;5065279;28;20469;-72
2022/11/03 02:38:20;;;;;;;10.90;5.63;;;6.90;99.90;;;;;;5065952;28;20484;-71
2022/11/03 02:41:08;;;;;;;11.97;5.57;;;7.00;99.90;;;;;;5068216;28;20534;-72
2022/11/03 02:43:57;;;;;;;8.40;5.17;;;7.10;99.90;;;;;;5069742;28;20570;-72
2022/11/03 02:46:44;;;;;;;9.93;6.07;;;7.20;99.90;;;;;;5058306;28;20536;-72
2022/11/03 02:49:30;;;;;;;13.50;5.63;;;7.10;99.90;;;;;;5063667;28;20578;-72
2022/11/03 02:52:34;;;;;;;8.03;5.40;;;7.10;99.90;;;;;;5069351;28;20442;-72
2022/11/03 02:55:29;;;;;;;8.90;5.10;;;7.10;99.90;;;;;;5069836;28;20478;-72
2022/11/03 02:58:23;;;;;;;8.53;4.93;;;7.10;99.90;;;;;;5066226;28;20920;-72
2022/11/03 03:01:17;;;;;;;7.00;5.00;;;7.10;99.90;;;;;;5067427;28;20416;-72
2022/11/03 03:04:09;;;;;;;9.60;4.87;;;7.10;99.90;;;;;;5071283;28;20442;-72
2022/11/03 03:07:00;;;;;;;7.27;5.17;;;7.00;99.90;;;;;;5070962;28;20457;-71
2022/11/03 03:09:52;;;;;;;7.17;5.03;;;6.90;99.90;;;;;;5067723;28;20538;-72
2022/11/03 03:12:41;;;;;;;7.50;4.77;;;6.90;99.90;;;;;;5072079;28;20528;-72
2022/11/03 03:15:37;;;;;;;10.73;5.83;;;6.80;99.90;;;;;;5070711;28;20475;-72
2022/11/03 03:18:30;;;;;;;8.30;5.10;;;6.70;99.90;;;;;;5063806;28;20978;-72
2022/11/03 03:21:21;;;;;;;10.57;5.17;;;6.80;99.90;;;;;;5069108;28;21021;-72
2022/11/03 03:24:11;;;;;;;8.73;5.37;;;6.70;99.90;;;;;;5065513;28;20475;-72
2022/11/03 03:27:01;;;;;;;7.93;5.43;;;6.60;99.90;;;;;;5069131;28;20622;-72
2022/11/03 03:29:51;;;;;;;9.93;5.83;;;6.50;99.90;;;;;;5077356;28;20424;-72
2022/11/03 03:32:39;;;;;;;7.40;5.60;;;6.40;99.90;;;;;;5071199;28;20414;-72
2022/11/03 03:35:29;;;;;;;9.60;7.30;;;6.20;99.90;;;;;;5072701;28;20478;-72
2022/11/03 03:38:21;;;;;;;10.30;5.85;;;6.20;99.90;;;;;;5066051;28;20652;-72
2022/11/03 03:41:10;;;;;;;9.20;5.53;;;6.10;99.90;;;;;;5053036;28;20205;-72
2022/11/03 03:43:58;;;;;;;12.43;7.00;;;6.30;99.90;;;;;;5068782;28;20790;-71
2022/11/03 03:46:49;;;;;;;7.40;5.80;;;6.40;99.90;;;;;;5051804;28;20790;-72
2022/11/03 03:49:34;;;;;;;12.37;6.33;;;6.50;99.90;;;;;;5053587;28;20459;-72
2022/11/03 03:52:22;;;;;;;9.23;6.25;;;6.70;99.90;;;;;;5051943;28;20907;-72
2022/11/03 03:55:15;;;;;;;11.97;7.57;;;6.70;99.90;;;;;;5066912;28;20236;-72
2022/11/03 03:58:01;;;;;;;6.87;6.13;;;6.70;99.90;;;;;;5062516;28;20410;-72
2022/11/03 04:00:47;;;;;;;11.33;5.80;;;6.70;99.90;;;;;;5067235;28;20484;-72
2022/11/03 04:03:32;;;;;;;8.20;5.47;;;6.70;99.90;;;;;;5066362;28;20447;-72
2022/11/03 04:06:18;;;;;;;8.23;5.63;;;6.70;99.90;;;;;;5063153;28;20454;-72
2022/11/03 04:09:05;;;;;;;8.50;4.93;;;6.80;99.90;;;;;;5065822;28;20915;-72
2022/11/03 04:24:06;;;;;;;6.93;4.80;;;6.70;99.90;;;;;;5070612;28;20418;-72
2022/11/03 04:26:52;;;;;;;8.27;5.80;;;6.70;99.90;;;;;;5068466;28;20601;-72
2022/11/03 04:29:38;;;;;;;6.20;5.30;;;6.60;99.90;;;;;;5081246;28;20473;-72
2022/11/03 04:32:23;;;;;;;9.27;5.90;;;6.50;99.90;;;;;;5068968;28;20508;-72
2022/11/03 04:35:16;;;;;;;8.88;5.70;;;6.50;99.90;;;;;;5070243;28;20237;-72
2022/11/03 04:38:05;;;;;;;9.63;5.63;;;6.40;99.90;;;;;;5061583;28;20201;-72
2022/11/03 04:40:54;;;;;;;6.60;5.70;;;6.50;99.90;;;;;;5071039;28;20469;-72
2022/11/03 04:43:40;;;;;;;7.60;5.73;;;6.50;99.90;;;;;;5070840;28;20554;-72
2022/11/03 04:46:31;;;;;;;10.77;6.20;;;6.50;99.90;;;;;;5086362;28;20559;-72
2022/11/03 04:49:22;;;;;;;13.75;5.97;;;6.50;99.90;;;;;;5048212;28;20387;-72
2022/11/03 04:52:15;;;;;;;7.77;5.80;;;6.50;99.90;;;;;;5049431;28;20204;-72
2022/11/03 04:55:00;;;;;;;7.13;4.90;;;6.60;99.90;;;;;;5054697;28;20538;-72
2022/11/03 04:57:46;;;;;;;8.73;5.10;;;6.70;99.90;;;;;;5041866;28;21093;-72
2022/11/03 05:00:31;;;;;;;9.63;5.10;;;6.70;99.90;;;;;;5042474;28;20536;-72
2022/11/03 05:03:22;;;;;;;8.07;4.22;;;6.70;99.90;;;;;;5048504;28;20796;-72
2022/11/03 05:06:14;;;;;;;7.40;4.63;;;6.70;99.90;;;;;;5047005;28;20359;-72
2022/11/03 05:09:02;;;;;;;5.95;4.25;;;6.60;99.90;;;;;;5044292;28;20276;-72
2022/11/03 05:11:48;;;;;;;8.37;4.63;;;6.60;99.90;;;;;;5028404;28;20253;-72
2022/11/03 05:14:33;;;;;;;6.40;4.87;;;6.60;99.90;;;;;;5030912;28;20495;-72
2022/11/03 05:17:23;;;;;;;8.10;4.80;;;6.60;99.90;;;;;;5040713;28;20569;-72
2022/11/03 05:20:26;;;;;;;7.73;4.23;;;6.50;99.90;;;;;;5028138;28;20669;-72
2022/11/03 05:23:12;;;;;;;8.65;4.03;;;6.40;99.90;;;;;;5040411;28;20451;-72
2022/11/03 05:25:59;;;;;;;9.43;4.63;;;6.30;99.90;;;;;;5045031;28;20228;-72
2022/11/03 05:28:48;;;;;;;5.38;3.97;;;6.30;99.90;;;;;;5046500;28;20440;-72
2022/11/03 05:31:36;;;;;;;11.32;4.85;;;6.40;99.90;;;;;;5046503;28;20217;-72
2022/11/03 05:34:40;;;;;;;6.40;4.23;;;6.50;99.90;;;;;;5047326;28;20710;-71
2022/11/03 05:37:30;;;;;;;9.50;4.50;;;6.50;99.90;;;;;;5036728;28;20448;-72
2022/11/03 05:40:22;;;;;;;7.70;4.27;;;6.60;99.90;;;;;;5027732;28;20425;-72
2022/11/03 05:43:10;;;;;;;8.57;4.65;;;6.50;99.90;;;;;;5045358;28;20486;-72
2022/11/03 05:46:00;;;;;;;6.80;5.10;;;6.50;99.90;;;;;;5045287;28;20382;-72
2022/11/03 05:48:46;;;;;;;7.63;5.10;;;6.40;99.90;;;;;;5027798;28;20472;-72
2022/11/03 05:51:34;;;;;;;7.97;4.50;;;6.40;99.90;;;;;;5027700;28;20441;-72
2022/11/03 05:54:23;;;;;;;9.73;5.30;;;6.30;99.90;;;;;;5038354;28;20932;-72
2022/11/03 05:57:11;;;;;;;9.05;4.47;;;6.20;99.90;;;;;;5020376;28;20198;-71
2022/11/03 05:59:58;;;;;;;12.63;4.60;;;6.20;99.90;;;;;;5026956;28;20579;-72
2022/11/03 06:02:44;;;;;;;8.45;4.80;;;6.30;99.90;;;;;;5031578;28;20602;-71
2022/11/03 06:05:32;;;;;;;6.40;4.93;;;6.40;99.90;;;;;;5030404;28;20237;-71
2022/11/03 06:08:20;;;;;;;8.75;5.03;;;6.40;99.90;;;;;;5029961;28;20210;-72
2022/11/03 06:11:15;;;;;;;11.23;5.63;;;6.40;99.90;;;;;;5029203;28;20287;-72
2022/11/03 06:14:01;;;;;;;9.40;5.10;;;6.40;99.90;;;;;;5028862;28;20877;-72
2022/11/03 06:16:49;;;;;;;6.73;4.50;;;6.30;99.90;;;;;;5029561;28;20495;-72
2022/11/03 06:19:38;;;;;;;8.02;4.55;;;6.20;99.90;;;;;;5032411;28;20595;-72
2022/11/03 06:22:27;;;;;;;9.70;4.50;;;6.30;99.90;;;;;;5031434;28;20256;-72
2022/11/03 06:25:23;;;;;;;6.17;4.27;;;6.30;99.90;;;;;;5027741;28;20551;-72
2022/11/03 06:28:17;;;;;;;10.75;4.47;;;6.20;99.90;;;;;;5029471;28;20959;-72
2022/11/03 06:31:04;;;;;;;8.83;4.87;;;6.10;99.90;;;;;;5032753;28;20337;-72
2022/11/03 06:33:51;;;;;;;16.57;5.87;;;6.20;99.90;;;;;;5033169;28;20424;-72
2022/11/03 06:36:37;;;;;;;9.10;5.55;;;6.10;99.90;;;;;;5024737;28;20543;-72
2022/11/03 06:39:24;;;;;;;10.93;6.63;;;6.20;99.90;;;;;;5025071;28;20862;-72
2022/11/03 06:42:15;;;;;;;8.45;5.50;;;6.20;99.90;;;;;;5028559;28;20217;-72
2022/11/03 06:45:12;;;;;;;9.43;5.30;;;6.30;99.90;;;;;;5029393;28;20368;-71
2022/11/03 06:48:14;;;;;;;7.65;4.85;;;6.10;99.90;;;;;;5023021;28;20456;-72
2022/11/03 06:51:00;;;;;;;8.60;5.40;;;6.20;99.90;;;;;;5030478;28;20220;-72
2022/11/03 06:53:46;;;;;;;6.97;4.03;;;6.40;99.90;;;;;;5033468;28;20983;-72
2022/11/03 06:56:36;;;;;;;11.80;4.82;;;6.50;99.90;;;;;;5027382;28;20587;-72
2022/11/03 06:59:22;;;;;;;11.13;5.10;;;6.50;99.90;;;;;;5028628;28;20217;-72
2022/11/03 07:02:33;;;;;;;10.82;5.65;;;6.50;99.90;;;;;;5026180;28;20394;-72
2022/11/03 07:05:22;;;;;;;14.93;5.43;;;6.60;99.90;;;;;;5029335;28;20960;-72
2022/11/03 07:08:20;;;;;;;8.53;4.97;;;6.70;99.90;;;;;;5029866;28;20280;-72
2022/11/03 07:11:15;;;;;;;7.73;4.60;;;6.80;99.90;;;;;;5026926;28;20448;-71
2022/11/03 07:14:11;;;;;;;14.23;5.25;;;6.80;99.90;;;;;;5030207;28;20456;-72
2022/11/03 07:16:59;;;;;;;10.10;5.47;;;6.80;99.90;;;;;;5028993;28;20335;-71
2022/11/03 07:19:46;;;;;;;11.60;5.27;;;6.90;99.90;;;;;;5028899;28;20599;-71
2022/11/03 07:22:31;;;;;;;7.33;5.67;;;6.90;99.90;;;;;;5028310;28;20472;-73
2022/11/03 07:25:19;;;;;;;10.48;5.22;;;7.00;99.90;;;;;;5029625;28;21102;-73
2022/11/03 07:28:05;;;;;;;6.70;5.00;;;7.00;99.90;;;;;;5022836;28;20260;-73
2022/11/03 07:30:51;;;;;;;8.33;5.00;;;7.00;99.90;;;;;;5032347;28;20424;-73
2022/11/03 07:33:36;;;;;;;6.28;5.05;;;7.10;99.90;;;;;;5031797;28;20564;-73
2022/11/03 07:36:24;;;;;;;8.80;5.60;;;7.20;99.90;;;;;;5016367;28;20557;-73
2022/11/03 07:39:15;;;;;;;10.43;5.40;;;7.20;99.90;;;;;;5013771;28;20434;-73
2022/11/03 07:42:09;;;;;;;8.90;4.70;;;7.20;99.90;;;;;;5032459;28;20225;-73
2022/11/03 07:44:56;;;;;;;7.23;5.30;;;7.30;99.90;;;;;;5028584;28;20947;-73
2022/11/03 07:47:44;;;;;;;12.03;4.60;;;7.20;99.90;;;;;;5012658;28;20425;-73
2022/11/03 07:50:29;;;;;;;10.90;4.73;;;7.30;99.90;;;;;;5012392;28;20640;-73
2022/11/03 07:53:21;;;;;;;10.83;4.70;;;7.50;99.90;;;;;;5012312;28;20445;-73
2022/11/03 07:56:17;;;;;;;8.83;5.77;;;7.60;99.90;;;;;;5019571;28;20464;-73
2022/11/03 07:59:13;;;;;;;9.13;6.03;;;7.70;99.90;;;;;;5023292;28;20538;-73
2022/11/03 08:02:00;;;;;;;10.47;5.80;;;7.80;99.90;;;;;;5024453;28;20449;-72
2022/11/03 08:04:45;;;;;;;9.57;5.40;;;7.80;99.90;;;;;;5011811;28;20445;-73
2022/11/03 08:07:31;;;;;;;13.23;5.90;;;7.90;99.90;;;;;;5030512;28;20568;-73
2022/11/03 08:10:20;;;;;;;10.73;6.20;;;7.90;99.90;;;;;;5030790;28;20456;-73
2022/11/03 08:13:05;;;;;;;8.73;5.90;;;8.00;99.90;;;;;;5024803;28;20491;-73
2022/11/03 08:15:51;;;;;;;10.43;5.80;;;8.00;99.90;;;;;;5029078;28;20472;-73
2022/11/03 08:18:36;;;;;;;8.13;5.13;;;8.10;99.90;;;;;;5028568;28;20775;-73
2022/11/03 08:21:22;;;;;;;12.20;5.23;;;8.20;99.90;;;;;;5025618;28;20529;-73
2022/11/03 08:24:08;;;;;;;11.10;6.27;;;8.30;99.90;;;;;;5023142;28;20468;-73
2022/11/03 08:26:54;;;;;;;7.10;5.00;;;8.30;99.90;;;;;;5029016;28;20551;-74
2022/11/03 08:29:40;;;;;;;11.80;5.00;;;8.40;99.90;;;;;;5027445;28;20851;-74
2022/11/03 08:32:26;;;;;;;9.53;5.93;;;8.40;99.90;;;;;;5024188;28;20817;-74
2022/11/03 08:35:11;;;;;;;10.70;4.93;;;8.50;99.90;;;;;;5027979;28;20508;-73
2022/11/03 08:37:57;;;;;;;9.90;5.17;;;8.40;99.90;;;;;;5030214;28;20472;-73
2022/11/03 08:40:42;;;;;;;11.70;4.87;;;8.60;99.90;;;;;;5025551;28;20573;-73
2022/11/03 08:43:29;;;;;;;6.53;4.47;;;8.60;99.90;;;;;;5028352;28;20952;-73
2022/11/03 08:46:15;;;;;;;7.47;3.87;;;8.80;99.90;;;;;;5029051;28;20468;-73
2022/11/03 08:49:01;;;;;;;11.80;4.70;;;9.00;99.90;;;;;;5027299;28;20571;-73
2022/11/03 08:51:47;;;;;;;9.17;4.43;;;9.20;99.90;;;;;;5025800;28;20482;-73
2022/11/03 08:54:32;;;;;;;6.40;3.20;;;9.40;99.90;;;;;;5031598;28;20747;-73
2022/11/03 08:57:18;;;;;;;9.50;4.00;;;9.50;99.90;;;;;;5024345;28;20560;-73
2022/11/03 09:00:08;;;;;;;10.63;4.00;;;9.70;99.90;;;;;;5024224;28;20595;-73
2022/11/03 09:02:54;;;;;;;9.27;4.17;;;9.90;99.90;;;;;;5028562;28;20454;-73
2022/11/03 09:05:39;;;;;;;8.57;3.70;;;10.00;99.90;;;;;;5027838;28;21044;-73
2022/11/03 09:08:25;;;;;;;9.27;4.33;;;10.30;99.90;;;;;;5027110;28;20465;-73
2022/11/03 09:11:10;;;;;;;10.10;3.67;;;10.50;99.90;;;;;;5028555;28;20425;-73
2022/11/03 09:13:56;;;;;;;5.50;3.23;;;10.80;99.90;;;;;;5024678;28;20447;-73
2022/11/03 09:16:44;;;;;;;18.60;3.70;;;11.10;99.90;;;;;;5023252;28;20867;-73
2022/11/03 09:19:29;;;;;;;9.37;3.77;;;11.30;99.90;;;;;;5027121;28;20387;-72
2022/11/03 09:22:15;;;;;;;7.00;3.30;;;11.50;99.90;;;;;;5030366;28;20399;-72
2022/11/03 09:25:01;;;;;;;7.77;3.20;;;11.70;99.90;;;;;;5029032;28;20479;-72
2022/11/03 09:27:46;;;;;;;10.20;3.63;;;11.90;99.90;;;;;;5010968;28;20391;-73
2022/11/03 09:30:32;;;;;;;7.40;3.23;;;11.90;99.90;;;;;;5011040;28;20480;-73
2022/11/03 09:33:19;;;;;;;11.53;3.33;;;12.10;99.90;;;;;;5013687;28;20416;-73
2022/11/03 09:36:05;;;;;;;13.30;3.40;;;12.20;99.90;;;;;;5023317;28;20469;-72
2022/11/03 09:38:51;;;;;;;13.47;4.47;;;12.30;99.90;;;;;;5023882;28;20885;-72
2022/11/03 09:41:36;;;;;;;6.10;2.83;;;12.30;99.90;;;;;;5034633;28;20539;-73
2022/11/03 09:44:22;;;;;;;10.70;3.40;;;12.40;99.90;;;;;;5028351;28;20475;-73
2022/11/03 09:47:12;;;;;;;6.63;2.93;;;12.40;99.90;;;;;;5029200;28;20461;-73
2022/11/03 09:49:59;;;;;;;7.80;3.57;;;12.40;99.90;;;;;;5030490;28;20664;-73
2022/11/03 09:52:46;;;;;;;13.73;4.00;;;12.40;99.90;;;;;;5030995;28;20456;-73
2022/11/03 09:55:34;;;;;;;9.70;3.23;;;12.50;99.90;;;;;;5027455;28;20431;-73
2022/11/03 09:58:19;;;;;;;10.40;3.53;;;12.50;99.90;;;;;;5030215;28;20822;-73
2022/11/03 10:01:05;;;;;;;6.50;2.60;;;12.50;99.90;;;;;;5032372;28;20461;-73
2022/11/03 10:03:51;;;;;;;6.63;2.80;;;12.50;99.90;;;;;;5030141;28;20468;-72
2022/11/03 10:06:38;;;;;;;9.53;2.40;;;12.50;99.90;;;;;;5029442;28;20453;-73
2022/11/03 10:09:25;;;;;;;8.17;2.80;;;12.50;99.90;;;;;;5032112;28;20444;-73
2022/11/03 10:12:10;;;;;;;7.43;2.73;;;12.60;99.90;;;;;;5027261;28;20437;-73
2022/11/03 10:14:56;;;;;;;11.57;2.97;;;12.70;99.90;;;;;;5028377;28;20446;-73
2022/11/03 10:17:43;;;;;;;5.33;2.77;;;12.70;99.90;;;;;;5030514;28;20440;-73
2022/11/03 10:20:29;;;;;;;8.53;2.83;;;12.80;99.90;;;;;;5028344;28;20953;-73
2022/11/03 10:23:16;;;;;;;7.90;3.20;;;12.80;99.90;;;;;;5030770;28;20456;-73
2022/11/03 10:26:10;;;;;;;15.07;4.37;;;12.90;99.90;;;;;;5028641;28;20554;-73
2022/11/03 10:29:01;;;;;;;8.30;2.70;;;13.00;99.90;;;;;;5031140;28;20440;-73
2022/11/03 10:31:50;;;;;;;7.10;2.67;;;13.10;99.90;;;;;;5025244;28;20896;-73
2022/11/03 10:34:38;;;;;;;4.33;2.43;;;13.20;99.90;;;;;;5027127;28;20542;-73
2022/11/03 10:37:24;;;;;;;8.67;2.53;;;13.30;99.90;;;;;;5030780;28;20414;-73
2022/11/03 10:40:36;;;;;;;9.00;3.33;;;13.40;99.90;;;;;;5024957;28;20832;-73
2022/11/03 10:43:21;;;;;;;5.87;2.30;;;13.50;99.90;;;;;;5031483;28;20958;-73
2022/11/03 10:46:21;;;;;;;6.97;2.53;;;13.70;99.90;;;;;;5028979;28;20455;-73
2022/11/03 10:49:13;;;;;;;5.50;2.87;;;13.70;99.90;;;;;;5024918;28;20472;-73
2022/11/03 10:52:09;;;;;;;6.87;2.50;;;13.80;99.90;;;;;;5025071;28;20790;-73
2022/11/03 10:54:58;;;;;;;3.60;2.33;;;13.80;99.90;;;;;;5034809;28;20414;-73
2022/11/03 10:57:45;;;;;;;5.80;2.27;;;13.80;99.90;;;;;;5039142;22;21044;-77
2022/11/03 11:00:34;;;;;;;8.83;2.40;;;13.90;99.90;;;;;;5019355;28;20437;-76
2022/11/03 11:03:20;;;;;;;6.53;2.53;;;13.90;99.90;;;;;;5010201;28;20520;-76
2022/11/03 11:06:06;;;;;;;5.60;2.53;;;13.90;99.90;;;;;;5013665;28;21032;-76
2022/11/03 11:08:56;;;;;;;5.13;1.90;;;13.90;99.90;;;;;;5019865;28;20447;-76
2022/11/03 11:11:59;;;;;;;6.07;2.60;;;13.90;99.90;;;;;;5004296;28;20566;-77
2022/11/03 11:14:58;;;;;;;5.80;2.57;;;13.90;99.90;;;;;;5017582;28;21944;-75
2022/11/03 11:17:48;;;;;;;4.80;2.30;;;13.80;99.90;;;;;;5014463;28;20452;-75
2022/11/03 11:20:37;;;;;;;7.47;2.80;;;13.80;99.90;;;;;;5010528;28;20539;-75
2022/11/03 11:23:51;;;;;;;5.77;2.10;;;13.80;99.90;;;;;;5009922;28;20477;-76
2022/11/03 11:26:38;;;;;;;11.37;2.80;;;13.80;99.90;;;;;;5009157;28;20522;-76
2022/11/03 11:29:42;;;;;;;5.23;2.47;;;13.90;99.90;;;;;;5016465;28;20433;-76
2022/11/03 11:32:58;;;;;;;6.60;2.30;;;13.90;99.90;;;;;;5006973;28;20851;-77
2022/11/03 11:39:00;;;;;;;9.13;2.87;;;13.90;99.90;;;;;;5088873;27;20532;-76
2022/11/03 11:42:05;;;;;;;5.53;2.20;;;13.90;99.90;;;;;;5084585;28;20806;-76
2022/11/03 11:44:56;;;;;;;5.70;2.30;;;13.90;99.90;;;;;;5076796;28;20393;-76
2022/11/03 11:47:49;;;;;;;6.37;2.80;;;13.90;99.90;;;;;;5068356;28;20452;-76
2022/11/03 11:50:35;;;;;;;6.93;2.27;;;13.90;99.90;;;;;;5068147;28;20529;-76
2022/11/03 11:53:22;;;;;;;6.30;2.27;;;13.90;99.90;;;;;;5060241;22;20818;-72
2022/11/03 11:56:11;;;;;;;7.00;2.97;;;13.90;99.90;;;;;;5048223;28;20431;-72
2022/11/03 11:58:57;;;;;;;3.40;2.53;;;13.90;99.90;;;;;;5048179;28;20529;-73
2022/11/03 12:01:43;;;;;;;15.73;2.90;;;13.90;99.90;;;;;;5045408;28;20524;-73
2022/11/03 12:04:32;;;;;;;6.80;2.40;;;13.90;99.90;;;;;;5038261;28;20410;-71
2022/11/03 12:07:31;;;;;;;6.17;2.47;;;13.80;99.90;;;;;;5048342;28;20910;-72
2022/11/03 12:10:18;;;;;;;11.63;3.53;;;13.80;99.90;;;;;;5048233;28;20423;-72
2022/11/03 12:13:36;;;;;;;4.87;2.63;;;13.80;99.90;;;;;;5036775;28;20984;-72
2022/11/03 12:16:33;;;;;;;4.97;3.00;;;13.70;99.90;;;;;;5027844;28;20475;-72
2022/11/03 12:19:41;;;;;;;8.00;3.07;;;13.60;99.90;;;;;;5027552;28;20395;-72
2022/11/03 12:22:40;;;;;;;7.10;3.27;;;13.60;99.90;;;;;;5039846;28;20446;-72
2022/11/03 12:25:38;;;;;;;12.93;3.47;;;13.60;99.90;;;;;;5050113;28;20406;-72
2022/11/03 12:28:36;;;;;;;7.47;3.70;;;13.60;99.90;;;;;;5027343;28;20439;-72
2022/11/03 12:31:22;;;;;;;14.27;2.90;;;13.50;99.90;;;;;;5042886;28;20467;-73
2022/11/03 12:34:07;;;;;;;7.87;3.30;;;13.50;99.90;;;;;;5047306;28;20768;-72
2022/11/03 12:36:53;;;;;;;9.17;2.97;;;13.50;99.90;;;;;;5047469;28;20424;-72
2022/11/03 12:39:39;;;;;;;14.37;3.63;;;13.50;99.90;;;;;;5047688;28;20402;-72
2022/11/03 12:42:24;;;;;;;8.97;3.20;;;13.40;99.90;;;;;;5031302;28;20472;-72
2022/11/03 12:45:13;;;;;;;6.90;3.67;;;13.40;99.90;;;;;;5047065;28;20559;-72
2022/11/03 12:47:58;;;;;;;11.70;3.70;;;13.40;99.90;;;;;;5047789;28;20917;-72
2022/11/03 12:50:44;;;;;;;7.73;3.83;;;13.50;99.90;;;;;;5016306;28;20422;-72
2022/11/03 12:53:29;;;;;;;8.70;3.00;;;13.50;99.90;;;;;;5022963;28;20809;-72
2022/11/03 12:56:17;;;;;;;7.07;3.10;;;13.50;99.90;;;;;;5027629;28;20441;-72
2022/11/03 12:59:02;;;;;;;8.07;2.80;;;13.50;99.90;;;;;;5033406;28;20532;-72
2022/11/03 13:01:49;;;;;;;6.47;3.00;;;13.50;99.90;;;;;;5025819;28;20979;-72
2022/11/03 13:04:34;;;;;;;10.23;3.53;;;13.50;99.90;;;;;;5027768;28;20403;-72
2022/11/03 13:07:20;;;;;;;7.77;2.87;;;13.60;99.90;;;;;;5033789;28;20527;-72
2022/11/03 13:10:06;;;;;;;4.67;3.03;;;13.60;99.90;;;;;;5032016;28;20793;-72
2022/11/03 13:12:52;;;;;;;8.33;2.67;;;13.70;99.90;;;;;;5022616;28;20466;-72
2022/11/03 13:15:37;;;;;;;7.00;3.07;;;13.70;99.90;;;;;;5033264;28;20394;-72
2022/11/03 13:18:24;;;;;;;4.30;2.43;;;13.70;99.90;;;;;;5033187;28;20442;-72
2022/11/03 13:21:10;;;;;;;5.27;2.97;;;13.80;99.90;;;;;;5021148;28;20419;-72
2022/11/03 13:23:55;;;;;;;8.43;3.00;;;13.80;99.90;;;;;;5029284;28;20402;-72
2022/11/03 13:26:41;;;;;;;7.63;2.73;;;13.80;99.90;;;;;;5033139;28;20967;-72
2022/11/03 13:29:26;;;;;;;10.83;3.10;;;13.80;99.90;;;;;;5032821;28;20773;-72
2022/11/03 13:32:12;;;;;;;6.13;2.40;;;13.70;99.90;;;;;;5019797;28;20504;-72
2022/11/03 13:34:59;;;;;;;12.73;3.30;;;13.70;99.90;;;;;;5013502;28;20459;-72
2022/11/03 13:37:44;;;;;;;6.70;3.20;;;13.80;99.90;;;;;;5019529;28;20443;-72
2022/11/03 13:40:30;;;;;;;9.00;3.57;;;13.80;99.90;;;;;;5028160;28;20916;-72
2022/11/03 13:43:16;;;;;;;10.23;3.00;;;13.70;99.90;;;;;;5021841;28;20419;-72
2022/11/03 13:46:02;;;;;;;9.53;3.40;;;13.70;99.90;;;;;;5013214;28;20913;-72
2022/11/03 13:48:48;;;;;;;6.30;2.97;;;13.70;99.90;;;;;;5028609;28;20565;-73
2022/11/03 13:51:35;;;;;;;8.37;3.43;;;13.70;99.90;;;;;;5021280;28;20508;-73
2022/11/03 13:54:20;;;;;;;9.07;3.30;;;13.60;99.90;;;;;;5023894;28;20403;-72
2022/11/03 13:57:07;;;;;;;10.43;2.30;;;13.60;99.90;;;;;;5027572;28;20399;-72
2022/11/03 13:59:52;;;;;;;5.43;2.90;;;13.60;99.90;;;;;;5027665;28;20472;-72
2022/11/03 14:02:38;;;;;;;5.17;2.43;;;13.60;99.90;;;;;;5022439;28;20454;-72
2022/11/03 14:05:23;;;;;;;6.40;2.80;;;13.60;99.90;;;;;;5027339;28;20915;-73
2022/11/03 14:08:10;;;;;;;11.07;2.83;;;13.50;99.90;;;;;;5032430;28;20412;-72
2022/11/03 14:10:56;;;;;;;11.33;3.23;;;13.50;99.90;;;;;;5024009;28;20418;-72
2022/11/03 14:13:40;;;;;;;6.50;3.20;;;13.50;99.90;;;;;;5021907;28;20853;-73
2022/11/03 14:16:26;;;;;;;3.63;2.17;;;13.40;99.90;;;;;;5027183;28;20470;-72
2022/11/03 14:19:12;;;;;;;5.50;3.50;;;13.40;99.90;;;;;;5026470;28;20520;-73
2022/11/03 14:21:57;;;;;;;6.20;2.83;;;13.30;99.90;;;;;;5021063;28;20791;-72
2022/11/03 14:24:45;;;;;;;14.60;2.83;;;13.30;99.90;;;;;;5027500;28;20458;-72
2022/11/03 14:27:30;;;;;;;6.30;3.80;;;13.20;99.90;;;;;;5020706;28;20459;-72
2022/11/03 14:30:16;;;;;;;7.93;3.23;;;13.20;99.90;;;;;;5022249;28;20418;-72
2022/11/03 14:33:01;;;;;;;13.50;2.80;;;13.20;99.90;;;;;;5035139;28;20904;-72
2022/11/03 14:35:47;;;;;;;7.20;2.83;;;13.10;99.90;;;;;;5032774;28;20515;-72
2022/11/03 14:38:33;;;;;;;5.60;2.20;;;13.00;99.90;;;;;;5023813;28;20464;-72
2022/11/03 14:44:23;;;;;;;5.20;2.67;;;13.00;99.90;;;;;;5026061;28;20461;-72
2022/11/03 14:47:11;;;;;;;9.40;2.83;;;13.00;99.90;;;;;;5023363;28;20451;-72
2022/11/03 14:49:57;;;;;;;5.93;3.03;;;13.00;99.90;;;;;;5025380;28;20472;-72
2022/11/03 14:52:42;;;;;;;5.27;2.93;;;12.90;99.90;;;;;;5022355;28;20450;-73
2022/11/03 14:55:28;;;;;;;5.53;2.77;;;12.90;99.90;;;;;;5027595;28;20452;-72
2022/11/03 14:58:15;;;;;;;9.10;3.17;;;12.90;99.90;;;;;;5022453;28;21072;-73
2022/11/03 15:01:01;;;;;;;4.07;2.60;;;12.90;99.90;;;;;;5025154;28;20423;-72
2022/11/03 15:03:47;;;;;;;7.80;3.43;;;12.90;99.90;;;;;;5025224;28;21004;-72
2022/11/03 15:06:32;;;;;;;3.93;2.13;;;12.80;99.90;;;;;;5028643;28;20456;-72